This is the latest recevied weather packets stored in our database for station/object E22ZMG-3. If no packets are shown the sender has not sent any weather packets the latest 10 day(s).
| Time | Temp. | Humidity | Pressure | Rain* | Wind** | Luminosity | Snow |
|---|---|---|---|---|---|---|---|
| 1778161142 | 31.67° C | 51% | 975 hPa | - | - | 0 W/m² | - |
| 1778160518 | 31.67° C | 53% | 975 hPa | - | - | 0 W/m² | - |
| 1778159893 | 31.67° C | 54% | 975 hPa | - | - | 0 W/m² | - |
| 1778159268 | 33.33° C | 47% | 974 hPa | - | - | 0 W/m² | - |
| 1778158644 | 34.44° C | 45% | 974 hPa | - | - | 0 W/m² | - |
| 1778157392 | 33.89° C | 44% | 974 hPa | - | - | 0 W/m² | - |
| 1778156893 | 34.44° C | 45% | 973 hPa | - | - | 0 W/m² | - |
| 1778156768 | 34.44° C | 45% | 973 hPa | - | - | 0 W/m² | - |
| 1778155510 | 35° C | 45% | 972 hPa | - | - | 0 W/m² | - |
| 1778154885 | 35.56° C | 45% | 972 hPa | - | - | 0 W/m² | - |
| 1778153637 | 36.11° C | 41% | 971 hPa | - | - | 0 W/m² | - |
| 1778153012 | 38.89° C | 34% | 971 hPa | - | - | 0 W/m² | - |
| 1778152387 | 38.89° C | 33% | 971 hPa | - | - | 0 W/m² | - |
| 1778151762 | 38.89° C | 35% | 970 hPa | - | - | 0 W/m² | - |
| 1778151137 | 38.89° C | 33% | 970 hPa | - | - | 0 W/m² | - |
| 1778149887 | 39.44° C | 34% | 970 hPa | - | - | 0 W/m² | - |
| 1778149261 | 40.56° C | 32% | 969 hPa | - | - | 0 W/m² | - |
| 1778148636 | 41.67° C | 32% | 970 hPa | - | - | 0 W/m² | - |
| 1778148011 | 40.56° C | 33% | 970 hPa | - | - | 0 W/m² | - |
| 1778146762 | 38.89° C | 35% | 970 hPa | - | - | 0 W/m² | - |
| 1778146137 | 38.33° C | 36% | 970 hPa | - | - | 0 W/m² | - |
| 1778145512 | 37.22° C | 39% | 970 hPa | - | - | 0 W/m² | - |
| 1778144887 | 37.22° C | 39% | 971 hPa | - | - | 0 W/m² | - |
| 1778144260 | 36.67° C | 39% | 971 hPa | - | - | 0 W/m² | - |
| 1778143636 | 40.56° C | 32% | 971 hPa | - | - | 0 W/m² | - |
* Rain since midnight (hover to see other rain measurements)
** Current wind speed in m/s (hover to see current wind gust speed)